Ocean Shores, Washington
Current Conditions -  °F | °C
As of 5:34 PM on Thursday 18 Dec 2014 (Local Time) from KHQM Reporting Station
Moderate Rain Moderate Rain  
Wind Chill: 44°   Ceiling: 1200
Heat Index: 49°   Visibility: 3mi
Dew Point: 48°   Wind: 12mph
Humidity: 97%   Direction: 80°E
Pressure: 29.68"   Gusts: NA
Location:  46.97°N, 124.16°W
Report Text: KHQM 190134Z AUTO 08010KT 3SM RA BR FEW008 BKN012 OVC019 09/09 A2968 RMK AO2 P0014 T00940089
Loading
Personal Weather Stations






























Interactive Weather Map New forecast layout! Learn more

10-Day Weather Forecast

Advertisements
Track Severe Weather on mobile